sensor_id;sensor_type;location;lat;lon;timestamp;temperature;humidity
19037;DHT22;9651;49.138;8.900;2022-10-15T00:00:24;15.00;99.90
19037;DHT22;9651;49.138;8.900;2022-10-15T00:04:26;15.00;99.90
19037;DHT22;9651;49.138;8.900;2022-10-15T00:08:29;15.00;99.90
19037;DHT22;9651;49.138;8.900;2022-10-15T00:12:31;15.10;99.90
19037;DHT22;9651;49.138;8.900;2022-10-15T00:16:33;15.00;99.90
19037;DHT22;9651;49.138;8.900;2022-10-15T00:20:35;15.00;99.90
19037;DHT22;9651;49.138;8.900;2022-10-15T00:24:38;15.00;99.90
19037;DHT22;9651;49.138;8.900;2022-10-15T00:28:40;15.00;99.90
19037;DHT22;9651;49.138;8.900;2022-10-15T00:32:42;15.00;99.90
19037;DHT22;9651;49.138;8.900;2022-10-15T00:36:44;15.00;99.90
19037;DHT22;9651;49.138;8.900;2022-10-15T00:40:48;15.00;99.90
19037;DHT22;9651;49.138;8.900;2022-10-15T00:44:54;15.00;99.90
19037;DHT22;9651;49.138;8.900;2022-10-15T00:48:59;15.00;99.90
19037;DHT22;9651;49.138;8.900;2022-10-15T00:53:04;15.00;99.90
19037;DHT22;9651;49.138;8.900;2022-10-15T00:57:09;15.00;99.90
19037;DHT22;9651;49.138;8.900;2022-10-15T01:01:12;15.00;99.90
19037;DHT22;9651;49.138;8.900;2022-10-15T01:05:15;15.00;99.90
19037;DHT22;9651;49.138;8.900;2022-10-15T01:09:17;15.00;99.90
19037;DHT22;9651;49.138;8.900;2022-10-15T01:13:24;15.10;99.90
19037;DHT22;9651;49.138;8.900;2022-10-15T01:17:35;15.00;99.90
19037;DHT22;9651;49.138;8.900;2022-10-15T01:21:45;15.10;99.90
19037;DHT22;9651;49.138;8.900;2022-10-15T01:26:00;15.10;99.90
19037;DHT22;9651;49.138;8.900;2022-10-15T01:30:26;15.10;99.90
19037;DHT22;9651;49.138;8.900;2022-10-15T01:34:37;15.10;99.90
19037;DHT22;9651;49.138;8.900;2022-10-15T01:38:48;15.10;99.90
19037;DHT22;9651;49.138;8.900;2022-10-15T01:42:56;15.20;99.90
19037;DHT22;9651;49.138;8.900;2022-10-15T01:47:02;15.20;99.90
19037;DHT22;9651;49.138;8.900;2022-10-15T01:51:06;15.20;99.90
19037;DHT22;9651;49.138;8.900;2022-10-15T01:55:11;15.20;99.90
19037;DHT22;9651;49.138;8.900;2022-10-15T01:59:16;15.20;99.90
19037;DHT22;9651;49.138;8.900;2022-10-15T02:03:21;15.20;99.90
19037;DHT22;9651;49.138;8.900;2022-10-15T02:07:31;15.30;99.90
19037;DHT22;9651;49.138;8.900;2022-10-15T02:11:46;15.20;99.90
19037;DHT22;9651;49.138;8.900;2022-10-15T02:15:55;15.30;99.90
19037;DHT22;9651;49.138;8.900;2022-10-15T02:20:05;15.40;99.90
19037;DHT22;9651;49.138;8.900;2022-10-15T02:24:10;15.40;99.90
19037;DHT22;9651;49.138;8.900;2022-10-15T02:28:14;15.50;99.90
19037;DHT22;9651;49.138;8.900;2022-10-15T02:32:20;15.50;99.90
19037;DHT22;9651;49.138;8.900;2022-10-15T02:36:24;15.60;99.90
19037;DHT22;9651;49.138;8.900;2022-10-15T02:40:28;15.70;99.90
19037;DHT22;9651;49.138;8.900;2022-10-15T02:44:33;15.80;99.90
19037;DHT22;9651;49.138;8.900;2022-10-15T02:48:35;15.80;99.90
19037;DHT22;9651;49.138;8.900;2022-10-15T02:52:39;15.90;99.90
19037;DHT22;9651;49.138;8.900;2022-10-15T02:56:41;15.90;99.90
19037;DHT22;9651;49.138;8.900;2022-10-15T03:00:43;15.90;99.90
19037;DHT22;9651;49.138;8.900;2022-10-15T03:04:46;15.90;99.90
19037;DHT22;9651;49.138;8.900;2022-10-15T03:08:50;16.00;99.90
19037;DHT22;9651;49.138;8.900;2022-10-15T03:12:52;16.00;99.90
19037;DHT22;9651;49.138;8.900;2022-10-15T03:16:54;16.00;99.90
19037;DHT22;9651;49.138;8.900;2022-10-15T03:20:57;16.10;99.90
19037;DHT22;9651;49.138;8.900;2022-10-15T03:25:00;16.00;99.90
19037;DHT22;9651;49.138;8.900;2022-10-15T03:29:02;16.00;99.90
19037;DHT22;9651;49.138;8.900;2022-10-15T03:33:12;16.00;99.90
19037;DHT22;9651;49.138;8.900;2022-10-15T03:37:14;16.00;99.90
19037;DHT22;9651;49.138;8.900;2022-10-15T03:41:18;16.00;99.90
19037;DHT22;9651;49.138;8.900;2022-10-15T03:45:22;16.10;99.90
19037;DHT22;9651;49.138;8.900;2022-10-15T03:49:34;16.10;99.90
19037;DHT22;9651;49.138;8.900;2022-10-15T03:53:38;16.10;99.90
19037;DHT22;9651;49.138;8.900;2022-10-15T03:57:42;16.10;99.90
19037;DHT22;9651;49.138;8.900;2022-10-15T04:01:43;16.20;99.90
19037;DHT22;9651;49.138;8.900;2022-10-15T04:05:49;16.10;99.90
19037;DHT22;9651;49.138;8.900;2022-10-15T04:09:52;16.20;99.90
19037;DHT22;9651;49.138;8.900;2022-10-15T04:14:08;16.20;99.90
19037;DHT22;9651;49.138;8.900;2022-10-15T04:18:10;16.10;99.90
19037;DHT22;9651;49.138;8.900;2022-10-15T04:22:13;16.20;99.90
19037;DHT22;9651;49.138;8.900;2022-10-15T04:26:20;16.10;99.90
19037;DHT22;9651;49.138;8.900;2022-10-15T04:30:23;16.10;99.90
19037;DHT22;9651;49.138;8.900;2022-10-15T04:34:32;16.10;99.90
19037;DHT22;9651;49.138;8.900;2022-10-15T04:38:34;16.10;99.90
19037;DHT22;9651;49.138;8.900;2022-10-15T04:42:38;16.10;99.90
19037;DHT22;9651;49.138;8.900;2022-10-15T04:46:41;16.10;99.90
19037;DHT22;9651;49.138;8.900;2022-10-15T04:51:12;16.10;99.90
19037;DHT22;9651;49.138;8.900;2022-10-15T04:55:31;16.10;99.90
19037;DHT22;9651;49.138;8.900;2022-10-15T04:59:35;16.10;99.90
19037;DHT22;9651;49.138;8.900;2022-10-15T05:03:55;16.10;99.90
19037;DHT22;9651;49.138;8.900;2022-10-15T05:07:59;16.10;99.90
19037;DHT22;9651;49.138;8.900;2022-10-15T05:12:02;16.10;99.90
19037;DHT22;9651;49.138;8.900;2022-10-15T05:16:09;16.10;99.90
19037;DHT22;9651;49.138;8.900;2022-10-15T05:20:13;16.10;99.90
19037;DHT22;9651;49.138;8.900;2022-10-15T05:24:15;16.00;99.90
19037;DHT22;9651;49.138;8.900;2022-10-15T05:28:35;16.00;99.90
19037;DHT22;9651;49.138;8.900;2022-10-15T05:32:38;16.00;99.90
19037;DHT22;9651;49.138;8.900;2022-10-15T05:36:45;16.10;99.90
19037;DHT22;9651;49.138;8.900;2022-10-15T05:40:49;16.00;99.90
19037;DHT22;9651;49.138;8.900;2022-10-15T05:44:57;16.00;99.90
19037;DHT22;9651;49.138;8.900;2022-10-15T05:49:00;16.00;99.90
19037;DHT22;9651;49.138;8.900;2022-10-15T05:53:04;16.00;99.90
19037;DHT22;9651;49.138;8.900;2022-10-15T05:57:16;16.00;99.90
19037;DHT22;9651;49.138;8.900;2022-10-15T06:01:18;16.00;99.90
19037;DHT22;9651;49.138;8.900;2022-10-15T06:05:25;16.00;99.90
19037;DHT22;9651;49.138;8.900;2022-10-15T06:09:28;16.00;99.90
19037;DHT22;9651;49.138;8.900;2022-10-15T06:13:30;16.00;99.90
19037;DHT22;9651;49.138;8.900;2022-10-15T06:17:32;16.00;99.90
19037;DHT22;9651;49.138;8.900;2022-10-15T06:21:34;15.90;99.90
19037;DHT22;9651;49.138;8.900;2022-10-15T06:25:37;16.00;99.90
19037;DHT22;9651;49.138;8.900;2022-10-15T06:29:39;16.10;99.90
19037;DHT22;9651;49.138;8.900;2022-10-15T06:33:41;16.10;99.90
19037;DHT22;9651;49.138;8.900;2022-10-15T06:37:44;16.10;99.90
19037;DHT22;9651;49.138;8.900;2022-10-15T06:41:47;16.10;99.90
19037;DHT22;9651;49.138;8.900;2022-10-15T06:45:49;16.00;99.90
19037;DHT22;9651;49.138;8.900;2022-10-15T06:49:51;16.10;99.90
19037;DHT22;9651;49.138;8.900;2022-10-15T06:53:53;16.10;99.90
19037;DHT22;9651;49.138;8.900;2022-10-15T06:57:57;16.20;99.90
19037;DHT22;9651;49.138;8.900;2022-10-15T07:02:00;16.20;99.90
19037;DHT22;9651;49.138;8.900;2022-10-15T07:06:02;16.30;99.90
19037;DHT22;9651;49.138;8.900;2022-10-15T07:10:05;16.40;99.90
19037;DHT22;9651;49.138;8.900;2022-10-15T07:14:09;16.50;99.90
19037;DHT22;9651;49.138;8.900;2022-10-15T07:18:11;16.70;99.90
19037;DHT22;9651;49.138;8.900;2022-10-15T07:22:13;16.70;99.90
19037;DHT22;9651;49.138;8.900;2022-10-15T07:26:15;16.80;99.90
19037;DHT22;9651;49.138;8.900;2022-10-15T07:30:18;16.70;99.90
19037;DHT22;9651;49.138;8.900;2022-10-15T07:34:20;16.70;99.90
19037;DHT22;9651;49.138;8.900;2022-10-15T07:38:22;16.70;99.90
19037;DHT22;9651;49.138;8.900;2022-10-15T07:42:24;16.60;99.90
19037;DHT22;9651;49.138;8.900;2022-10-15T07:46:27;16.60;99.90
19037;DHT22;9651;49.138;8.900;2022-10-15T07:50:29;16.60;99.90
19037;DHT22;9651;49.138;8.900;2022-10-15T07:54:34;16.70;99.90
19037;DHT22;9651;49.138;8.900;2022-10-15T07:58:37;16.70;99.90
19037;DHT22;9651;49.138;8.900;2022-10-15T08:02:40;16.80;99.90
19037;DHT22;9651;49.138;8.900;2022-10-15T08:06:42;16.90;99.90
19037;DHT22;9651;49.138;8.900;2022-10-15T08:10:44;17.00;99.90
19037;DHT22;9651;49.138;8.900;2022-10-15T08:14:46;17.00;99.90
19037;DHT22;9651;49.138;8.900;2022-10-15T08:18:49;17.10;99.90
19037;DHT22;9651;49.138;8.900;2022-10-15T08:22:51;17.20;99.90
19037;DHT22;9651;49.138;8.900;2022-10-15T08:26:53;17.20;99.90
19037;DHT22;9651;49.138;8.900;2022-10-15T08:30:56;17.20;99.90
19037;DHT22;9651;49.138;8.900;2022-10-15T08:34:59;17.30;99.90
19037;DHT22;9651;49.138;8.900;2022-10-15T08:39:06;17.30;99.90
19037;DHT22;9651;49.138;8.900;2022-10-15T08:43:17;17.30;99.90
19037;DHT22;9651;49.138;8.900;2022-10-15T08:47:29;17.30;99.90
19037;DHT22;9651;49.138;8.900;2022-10-15T08:51:40;17.40;99.90
19037;DHT22;9651;49.138;8.900;2022-10-15T08:55:47;17.50;99.90
19037;DHT22;9651;49.138;8.900;2022-10-15T08:59:54;17.60;99.90
19037;DHT22;9651;49.138;8.900;2022-10-15T09:04:11;17.70;99.90
19037;DHT22;9651;49.138;8.900;2022-10-15T09:08:22;17.80;99.90
19037;DHT22;9651;49.138;8.900;2022-10-15T09:12:37;17.80;99.90
19037;DHT22;9651;49.138;8.900;2022-10-15T09:16:46;17.80;99.90
19037;DHT22;9651;49.138;8.900;2022-10-15T09:20:49;17.70;99.90
19037;DHT22;9651;49.138;8.900;2022-10-15T09:24:53;17.80;99.90
19037;DHT22;9651;49.138;8.900;2022-10-15T09:29:02;17.90;99.90
19037;DHT22;9651;49.138;8.900;2022-10-15T09:33:12;18.00;99.90
19037;DHT22;9651;49.138;8.900;2022-10-15T09:37:20;17.90;99.90
19037;DHT22;9651;49.138;8.900;2022-10-15T09:41:38;17.80;99.90
19037;DHT22;9651;49.138;8.900;2022-10-15T09:45:45;17.80;99.90
19037;DHT22;9651;49.138;8.900;2022-10-15T09:49:47;17.70;99.90
19037;DHT22;9651;49.138;8.900;2022-10-15T09:53:58;17.70;99.90
19037;DHT22;9651;49.138;8.900;2022-10-15T09:58:06;17.90;99.90
19037;DHT22;9651;49.138;8.900;2022-10-15T10:02:18;18.30;99.90
19037;DHT22;9651;49.138;8.900;2022-10-15T10:06:21;19.20;99.90
19037;DHT22;9651;49.138;8.900;2022-10-15T10:10:26;19.90;99.90
19037;DHT22;9651;49.138;8.900;2022-10-15T10:14:32;20.10;99.90
19037;DHT22;9651;49.138;8.900;2022-10-15T10:18:34;20.20;99.90
19037;DHT22;9651;49.138;8.900;2022-10-15T10:22:42;20.60;99.90
19037;DHT22;9651;49.138;8.900;2022-10-15T10:26:44;20.90;99.90
19037;DHT22;9651;49.138;8.900;2022-10-15T10:30:52;20.50;99.90
19037;DHT22;9651;49.138;8.900;2022-10-15T10:35:01;20.30;99.90
19037;DHT22;9651;49.138;8.900;2022-10-15T10:39:22;20.10;99.90
19037;DHT22;9651;49.138;8.900;2022-10-15T10:43:27;20.00;99.90
19037;DHT22;9651;49.138;8.900;2022-10-15T10:47:35;19.70;99.90
19037;DHT22;9651;49.138;8.900;2022-10-15T10:51:47;19.40;99.90
19037;DHT22;9651;49.138;8.900;2022-10-15T10:55:51;19.50;99.90
19037;DHT22;9651;49.138;8.900;2022-10-15T10:59:59;19.90;99.90
19037;DHT22;9651;49.138;8.900;2022-10-15T11:04:11;20.30;99.90
19037;DHT22;9651;49.138;8.900;2022-10-15T11:08:19;20.30;99.90
19037;DHT22;9651;49.138;8.900;2022-10-15T11:12:38;20.50;99.90
19037;DHT22;9651;49.138;8.900;2022-10-15T11:16:52;20.80;99.90
19037;DHT22;9651;49.138;8.900;2022-10-15T11:21:09;21.60;99.90
19037;DHT22;9651;49.138;8.900;2022-10-15T11:25:22;23.10;99.90
19037;DHT22;9651;49.138;8.900;2022-10-15T11:29:34;25.40;99.90
19037;DHT22;9651;49.138;8.900;2022-10-15T11:33:48;25.40;99.90
19037;DHT22;9651;49.138;8.900;2022-10-15T11:38:02;24.40;99.90
19037;DHT22;9651;49.138;8.900;2022-10-15T11:42:14;23.70;99.90
19037;DHT22;9651;49.138;8.900;2022-10-15T11:46:25;22.90;99.90
19037;DHT22;9651;49.138;8.900;2022-10-15T11:50:31;22.20;99.90
19037;DHT22;9651;49.138;8.900;2022-10-15T11:54:38;21.80;99.90
19037;DHT22;9651;49.138;8.900;2022-10-15T11:58:44;21.50;99.90
19037;DHT22;9651;49.138;8.900;2022-10-15T12:02:49;21.30;99.90
19037;DHT22;9651;49.138;8.900;2022-10-15T12:06:53;21.30;99.90
19037;DHT22;9651;49.138;8.900;2022-10-15T12:11:06;21.20;99.90
19037;DHT22;9651;49.138;8.900;2022-10-15T12:15:22;21.10;99.90
19037;DHT22;9651;49.138;8.900;2022-10-15T12:19:27;21.10;99.90
19037;DHT22;9651;49.138;8.900;2022-10-15T12:23:40;21.30;99.90
19037;DHT22;9651;49.138;8.900;2022-10-15T12:27:43;21.40;99.90
19037;DHT22;9651;49.138;8.900;2022-10-15T12:31:48;21.30;99.90
19037;DHT22;9651;49.138;8.900;2022-10-15T12:35:53;21.10;99.90
19037;DHT22;9651;49.138;8.900;2022-10-15T12:39:58;21.20;99.90
19037;DHT22;9651;49.138;8.900;2022-10-15T12:44:06;21.20;99.90
19037;DHT22;9651;49.138;8.900;2022-10-15T12:48:22;20.90;99.90
19037;DHT22;9651;49.138;8.900;2022-10-15T12:52:55;20.70;99.90
19037;DHT22;9651;49.138;8.900;2022-10-15T12:56:57;20.50;99.90
19037;DHT22;9651;49.138;8.900;2022-10-15T13:01:04;20.50;99.90
19037;DHT22;9651;49.138;8.900;2022-10-15T13:05:22;20.40;99.90
19037;DHT22;9651;49.138;8.900;2022-10-15T13:09:28;20.40;99.90
19037;DHT22;9651;49.138;8.900;2022-10-15T13:13:33;20.20;99.90
19037;DHT22;9651;49.138;8.900;2022-10-15T13:17:38;20.20;99.90
19037;DHT22;9651;49.138;8.900;2022-10-15T13:21:47;20.10;99.90
19037;DHT22;9651;49.138;8.900;2022-10-15T13:25:51;20.00;99.90
19037;DHT22;9651;49.138;8.900;2022-10-15T13:29:55;19.90;99.90
19037;DHT22;9651;49.138;8.900;2022-10-15T13:34:10;19.90;99.90
19037;DHT22;9651;49.138;8.900;2022-10-15T13:38:20;19.90;99.90
19037;DHT22;9651;49.138;8.900;2022-10-15T13:42:23;19.90;99.90
19037;DHT22;9651;49.138;8.900;2022-10-15T13:46:26;20.00;99.90
19037;DHT22;9651;49.138;8.900;2022-10-15T13:50:30;20.00;99.90
19037;DHT22;9651;49.138;8.900;2022-10-15T13:54:34;20.10;99.90
19037;DHT22;9651;49.138;8.900;2022-10-15T13:58:36;20.00;99.90
19037;DHT22;9651;49.138;8.900;2022-10-15T14:02:39;20.10;99.90
19037;DHT22;9651;49.138;8.900;2022-10-15T14:06:51;20.00;99.90
19037;DHT22;9651;49.138;8.900;2022-10-15T14:10:57;20.10;99.90
19037;DHT22;9651;49.138;8.900;2022-10-15T14:15:40;20.00;99.90
19037;DHT22;9651;49.138;8.900;2022-10-15T14:19:47;20.00;99.90
19037;DHT22;9651;49.138;8.900;2022-10-15T14:23:51;19.80;99.90
19037;DHT22;9651;49.138;8.900;2022-10-15T14:27:53;19.50;99.90
19037;DHT22;9651;49.138;8.900;2022-10-15T14:31:55;19.50;99.90
19037;DHT22;9651;49.138;8.900;2022-10-15T14:36:05;19.40;99.90
19037;DHT22;9651;49.138;8.900;2022-10-15T14:40:15;19.20;99.90
19037;DHT22;9651;49.138;8.900;2022-10-15T14:44:17;19.10;99.90
19037;DHT22;9651;49.138;8.900;2022-10-15T14:48:22;18.90;99.90
19037;DHT22;9651;49.138;8.900;2022-10-15T14:52:25;18.90;99.90
19037;DHT22;9651;49.138;8.900;2022-10-15T14:56:32;18.90;99.90
19037;DHT22;9651;49.138;8.900;2022-10-15T15:00:39;19.00;99.90
19037;DHT22;9651;49.138;8.900;2022-10-15T15:04:44;19.00;99.90
19037;DHT22;9651;49.138;8.900;2022-10-15T15:08:47;18.90;99.90
19037;DHT22;9651;49.138;8.900;2022-10-15T15:12:52;19.00;99.90
19037;DHT22;9651;49.138;8.900;2022-10-15T15:16:54;19.00;99.90
19037;DHT22;9651;49.138;8.900;2022-10-15T15:20:58;18.90;99.90
19037;DHT22;9651;49.138;8.900;2022-10-15T15:25:03;18.90;99.90
19037;DHT22;9651;49.138;8.900;2022-10-15T15:29:11;18.70;99.90
19037;DHT22;9651;49.138;8.900;2022-10-15T15:33:15;18.50;99.90
19037;DHT22;9651;49.138;8.900;2022-10-15T15:37:18;18.30;99.90
19037;DHT22;9651;49.138;8.900;2022-10-15T15:41:21;18.20;99.90
19037;DHT22;9651;49.138;8.900;2022-10-15T15:45:26;18.10;99.90
19037;DHT22;9651;49.138;8.900;2022-10-15T15:49:29;18.00;99.90
19037;DHT22;9651;49.138;8.900;2022-10-15T15:53:30;17.90;99.90
19037;DHT22;9651;49.138;8.900;2022-10-15T15:57:33;17.80;99.90
19037;DHT22;9651;49.138;8.900;2022-10-15T16:01:36;17.80;99.90
19037;DHT22;9651;49.138;8.900;2022-10-15T16:05:38;17.80;99.90
19037;DHT22;9651;49.138;8.900;2022-10-15T16:09:40;17.70;99.90
19037;DHT22;9651;49.138;8.900;2022-10-15T16:13:42;17.70;99.90
19037;DHT22;9651;49.138;8.900;2022-10-15T16:17:45;17.60;99.90
19037;DHT22;9651;49.138;8.900;2022-10-15T16:21:47;17.50;99.90
19037;DHT22;9651;49.138;8.900;2022-10-15T16:25:49;17.40;99.90
19037;DHT22;9651;49.138;8.900;2022-10-15T16:29:58;17.40;99.90
19037;DHT22;9651;49.138;8.900;2022-10-15T16:34:02;17.30;99.90
19037;DHT22;9651;49.138;8.900;2022-10-15T16:38:05;17.30;99.90
19037;DHT22;9651;49.138;8.900;2022-10-15T16:42:07;17.10;99.90
19037;DHT22;9651;49.138;8.900;2022-10-15T16:46:09;17.00;99.90
19037;DHT22;9651;49.138;8.900;2022-10-15T16:50:12;16.90;99.90
19037;DHT22;9651;49.138;8.900;2022-10-15T16:54:14;16.80;99.90
19037;DHT22;9651;49.138;8.900;2022-10-15T16:58:16;16.80;99.90
19037;DHT22;9651;49.138;8.900;2022-10-15T17:02:18;16.80;99.90
19037;DHT22;9651;49.138;8.900;2022-10-15T17:06:23;16.80;99.90
19037;DHT22;9651;49.138;8.900;2022-10-15T17:10:25;16.70;99.90
19037;DHT22;9651;49.138;8.900;2022-10-15T17:14:27;16.80;99.90
19037;DHT22;9651;49.138;8.900;2022-10-15T17:18:29;16.80;99.90
19037;DHT22;9651;49.138;8.900;2022-10-15T17:22:32;16.80;99.90
19037;DHT22;9651;49.138;8.900;2022-10-15T17:26:36;16.80;99.90
19037;DHT22;9651;49.138;8.900;2022-10-15T17:30:40;16.80;99.90
19037;DHT22;9651;49.138;8.900;2022-10-15T17:34:42;16.70;99.90
19037;DHT22;9651;49.138;8.900;2022-10-15T17:38:45;16.70;99.90
19037;DHT22;9651;49.138;8.900;2022-10-15T17:42:50;16.70;99.90
19037;DHT22;9651;49.138;8.900;2022-10-15T17:46:54;16.70;99.90
19037;DHT22;9651;49.138;8.900;2022-10-15T17:51:09;16.60;99.90
19037;DHT22;9651;49.138;8.900;2022-10-15T17:55:12;16.60;99.90
19037;DHT22;9651;49.138;8.900;2022-10-15T17:59:14;16.60;99.90
19037;DHT22;9651;49.138;8.900;2022-10-15T18:03:16;16.50;99.90
19037;DHT22;9651;49.138;8.900;2022-10-15T18:07:18;16.50;99.90
19037;DHT22;9651;49.138;8.900;2022-10-15T18:11:25;16.50;99.90
19037;DHT22;9651;49.138;8.900;2022-10-15T18:15:27;16.50;99.90
19037;DHT22;9651;49.138;8.900;2022-10-15T18:19:30;16.50;99.90
19037;DHT22;9651;49.138;8.900;2022-10-15T18:23:32;16.50;99.90
19037;DHT22;9651;49.138;8.900;2022-10-15T18:27:35;16.50;99.90
19037;DHT22;9651;49.138;8.900;2022-10-15T18:31:37;16.50;99.90
19037;DHT22;9651;49.138;8.900;2022-10-15T18:35:39;16.40;99.90
19037;DHT22;9651;49.138;8.900;2022-10-15T18:39:41;16.40;99.90
19037;DHT22;9651;49.138;8.900;2022-10-15T18:43:48;16.40;99.90
19037;DHT22;9651;49.138;8.900;2022-10-15T18:47:50;16.40;99.90
19037;DHT22;9651;49.138;8.900;2022-10-15T18:51:52;16.40;99.90
19037;DHT22;9651;49.138;8.900;2022-10-15T18:55:54;16.40;99.90
19037;DHT22;9651;49.138;8.900;2022-10-15T18:59:58;16.40;99.90
19037;DHT22;9651;49.138;8.900;2022-10-15T19:04:01;16.40;99.90
19037;DHT22;9651;49.138;8.900;2022-10-15T19:08:04;16.30;99.90
19037;DHT22;9651;49.138;8.900;2022-10-15T19:12:06;16.40;99.90
19037;DHT22;9651;49.138;8.900;2022-10-15T19:16:09;16.40;99.90
19037;DHT22;9651;49.138;8.900;2022-10-15T19:20:14;16.40;99.90
19037;DHT22;9651;49.138;8.900;2022-10-15T19:24:17;16.40;99.90
19037;DHT22;9651;49.138;8.900;2022-10-15T19:28:19;16.40;99.90
19037;DHT22;9651;49.138;8.900;2022-10-15T19:32:24;16.40;99.90
19037;DHT22;9651;49.138;8.900;2022-10-15T19:36:29;16.40;99.90
19037;DHT22;9651;49.138;8.900;2022-10-15T19:40:35;16.50;99.90
19037;DHT22;9651;49.138;8.900;2022-10-15T19:44:37;16.50;99.90
19037;DHT22;9651;49.138;8.900;2022-10-15T19:48:40;16.50;99.90
19037;DHT22;9651;49.138;8.900;2022-10-15T19:52:42;16.50;99.90
19037;DHT22;9651;49.138;8.900;2022-10-15T19:56:44;16.50;99.90
19037;DHT22;9651;49.138;8.900;2022-10-15T20:00:47;16.60;99.90
19037;DHT22;9651;49.138;8.900;2022-10-15T20:04:51;16.60;99.90
19037;DHT22;9651;49.138;8.900;2022-10-15T20:08:53;16.60;99.90
19037;DHT22;9651;49.138;8.900;2022-10-15T20:12:54;16.60;99.90
19037;DHT22;9651;49.138;8.900;2022-10-15T20:16:56;16.60;99.90
19037;DHT22;9651;49.138;8.900;2022-10-15T20:21:00;16.60;99.90
19037;DHT22;9651;49.138;8.900;2022-10-15T20:25:07;16.60;99.90
19037;DHT22;9651;49.138;8.900;2022-10-15T20:29:09;16.60;99.90
19037;DHT22;9651;49.138;8.900;2022-10-15T20:33:11;16.60;99.90
19037;DHT22;9651;49.138;8.900;2022-10-15T20:37:15;16.60;99.90
19037;DHT22;9651;49.138;8.900;2022-10-15T20:41:17;16.70;99.90
19037;DHT22;9651;49.138;8.900;2022-10-15T20:45:20;16.70;99.90
19037;DHT22;9651;49.138;8.900;2022-10-15T20:49:24;16.80;99.90
19037;DHT22;9651;49.138;8.900;2022-10-15T20:53:29;16.80;99.90
19037;DHT22;9651;49.138;8.900;2022-10-15T20:57:34;16.80;99.90
19037;DHT22;9651;49.138;8.900;2022-10-15T21:01:36;16.80;99.90
19037;DHT22;9651;49.138;8.900;2022-10-15T21:05:38;16.70;99.90
19037;DHT22;9651;49.138;8.900;2022-10-15T21:09:41;16.70;99.90
19037;DHT22;9651;49.138;8.900;2022-10-15T21:13:43;16.70;99.90
19037;DHT22;9651;49.138;8.900;2022-10-15T21:17:45;16.70;99.90
19037;DHT22;9651;49.138;8.900;2022-10-15T21:21:47;16.70;99.90
19037;DHT22;9651;49.138;8.900;2022-10-15T21:25:51;16.60;99.90
19037;DHT22;9651;49.138;8.900;2022-10-15T21:29:52;16.60;99.90
19037;DHT22;9651;49.138;8.900;2022-10-15T21:33:55;16.60;99.90
19037;DHT22;9651;49.138;8.900;2022-10-15T21:37:57;16.50;99.90
19037;DHT22;9651;49.138;8.900;2022-10-15T21:42:00;16.50;99.90
19037;DHT22;9651;49.138;8.900;2022-10-15T21:46:03;16.50;99.90
19037;DHT22;9651;49.138;8.900;2022-10-15T21:50:06;16.50;99.90
19037;DHT22;9651;49.138;8.900;2022-10-15T21:54:08;16.40;99.90
19037;DHT22;9651;49.138;8.900;2022-10-15T21:58:11;16.40;99.90
19037;DHT22;9651;49.138;8.900;2022-10-15T22:02:13;16.40;99.90
19037;DHT22;9651;49.138;8.900;2022-10-15T22:06:15;16.40;99.90
19037;DHT22;9651;49.138;8.900;2022-10-15T22:10:17;16.40;99.90
19037;DHT22;9651;49.138;8.900;2022-10-15T22:14:21;16.40;99.90
19037;DHT22;9651;49.138;8.900;2022-10-15T22:18:23;16.30;99.90
19037;DHT22;9651;49.138;8.900;2022-10-15T22:22:24;16.30;99.90
19037;DHT22;9651;49.138;8.900;2022-10-15T22:26:29;16.30;99.90
19037;DHT22;9651;49.138;8.900;2022-10-15T22:30:34;16.30;99.90
19037;DHT22;9651;49.138;8.900;2022-10-15T22:34:36;16.30;99.90
19037;DHT22;9651;49.138;8.900;2022-10-15T22:38:39;16.30;99.90
19037;DHT22;9651;49.138;8.900;2022-10-15T22:42:41;16.30;99.90
19037;DHT22;9651;49.138;8.900;2022-10-15T22:46:44;16.30;99.90
19037;DHT22;9651;49.138;8.900;2022-10-15T22:50:54;16.30;99.90
19037;DHT22;9651;49.138;8.900;2022-10-15T22:54:56;16.30;99.90
19037;DHT22;9651;49.138;8.900;2022-10-15T22:58:59;16.20;99.90
19037;DHT22;9651;49.138;8.900;2022-10-15T23:03:02;16.20;99.90
19037;DHT22;9651;49.138;8.900;2022-10-15T23:07:04;16.20;99.90
19037;DHT22;9651;49.138;8.900;2022-10-15T23:11:08;16.20;99.90
19037;DHT22;9651;49.138;8.900;2022-10-15T23:15:10;16.30;99.90
19037;DHT22;9651;49.138;8.900;2022-10-15T23:19:15;16.30;99.90
19037;DHT22;9651;49.138;8.900;2022-10-15T23:23:17;16.30;99.90
19037;DHT22;9651;49.138;8.900;2022-10-15T23:27:19;16.20;99.90
19037;DHT22;9651;49.138;8.900;2022-10-15T23:31:23;16.10;99.90
19037;DHT22;9651;49.138;8.900;2022-10-15T23:35:26;16.10;99.90
19037;DHT22;9651;49.138;8.900;2022-10-15T23:39:28;16.10;99.90
19037;DHT22;9651;49.138;8.900;2022-10-15T23:43:30;16.10;99.90
19037;DHT22;9651;49.138;8.900;2022-10-15T23:47:32;16.10;99.90
19037;DHT22;9651;49.138;8.900;2022-10-15T23:51:36;16.10;99.90
19037;DHT22;9651;49.138;8.900;2022-10-15T23:55:39;16.10;99.90
19037;DHT22;9651;49.138;8.900;2022-10-15T23:59:41;16.10;99.90
